sensor_id;sensor_type;location;lat;lon;timestamp;temperature;humidity
51811;DHT22;52468;40.116;18.296;2023-08-12T00:00:46;22.50;67.00
51811;DHT22;52468;40.116;18.296;2023-08-12T00:03:15;22.50;67.00
51811;DHT22;52468;40.116;18.296;2023-08-12T00:05:45;22.50;66.90
51811;DHT22;52468;40.116;18.296;2023-08-12T00:08:13;22.50;67.00
51811;DHT22;52468;40.116;18.296;2023-08-12T00:10:41;22.50;67.10
51811;DHT22;52468;40.116;18.296;2023-08-12T00:13:09;22.50;67.10
51811;DHT22;52468;40.116;18.296;2023-08-12T00:15:37;22.40;67.30
51811;DHT22;52468;40.116;18.296;2023-08-12T00:18:05;22.30;67.50
51811;DHT22;52468;40.116;18.296;2023-08-12T00:20:34;22.30;67.80
51811;DHT22;52468;40.116;18.296;2023-08-12T00:23:02;22.30;67.90
51811;DHT22;52468;40.116;18.296;2023-08-12T00:25:31;22.30;67.90
51811;DHT22;52468;40.116;18.296;2023-08-12T00:27:59;22.30;68.00
51811;DHT22;52468;40.116;18.296;2023-08-12T00:30:26;22.30;68.00
51811;DHT22;52468;40.116;18.296;2023-08-12T00:32:55;22.20;68.20
51811;DHT22;52468;40.116;18.296;2023-08-12T00:35:23;22.20;68.50
51811;DHT22;52468;40.116;18.296;2023-08-12T00:37:51;22.20;68.60
51811;DHT22;52468;40.116;18.296;2023-08-12T00:40:19;22.20;68.50
51811;DHT22;52468;40.116;18.296;2023-08-12T00:42:47;22.30;68.40
51811;DHT22;52468;40.116;18.296;2023-08-12T00:45:15;22.30;68.50
51811;DHT22;52468;40.116;18.296;2023-08-12T00:47:43;22.40;68.30
51811;DHT22;52468;40.116;18.296;2023-08-12T00:50:13;22.40;68.30
51811;DHT22;52468;40.116;18.296;2023-08-12T00:52:42;22.40;68.50
51811;DHT22;52468;40.116;18.296;2023-08-12T00:55:13;22.40;68.50
51811;DHT22;52468;40.116;18.296;2023-08-12T00:57:41;22.40;68.50
51811;DHT22;52468;40.116;18.296;2023-08-12T01:00:09;22.40;68.60
51811;DHT22;52468;40.116;18.296;2023-08-12T01:02:38;22.40;68.80
51811;DHT22;52468;40.116;18.296;2023-08-12T01:05:06;22.40;68.80
51811;DHT22;52468;40.116;18.296;2023-08-12T01:07:35;22.30;68.90
51811;DHT22;52468;40.116;18.296;2023-08-12T01:10:03;22.30;69.10
51811;DHT22;52468;40.116;18.296;2023-08-12T01:13:06;22.30;69.20
51811;DHT22;52468;40.116;18.296;2023-08-12T01:15:30;22.30;69.30
51811;DHT22;52468;40.116;18.296;2023-08-12T01:18:00;22.20;69.30
51811;DHT22;52468;40.116;18.296;2023-08-12T01:20:30;22.20;69.60
51811;DHT22;52468;40.116;18.296;2023-08-12T01:23:12;22.10;69.80
51811;DHT22;52468;40.116;18.296;2023-08-12T01:25:41;22.10;69.90
51811;DHT22;52468;40.116;18.296;2023-08-12T01:28:09;22.10;70.10
51811;DHT22;52468;40.116;18.296;2023-08-12T01:31:08;22.10;70.10
51811;DHT22;52468;40.116;18.296;2023-08-12T01:33:49;22.10;70.50
51811;DHT22;52468;40.116;18.296;2023-08-12T01:36:20;22.10;70.60
51811;DHT22;52468;40.116;18.296;2023-08-12T01:38:51;22.10;70.80
51811;DHT22;52468;40.116;18.296;2023-08-12T01:41:19;22.10;70.80
51811;DHT22;52468;40.116;18.296;2023-08-12T01:43:49;22.10;71.10
51811;DHT22;52468;40.116;18.296;2023-08-12T01:46:17;22.10;71.20
51811;DHT22;52468;40.116;18.296;2023-08-12T01:48:45;22.10;71.30
51811;DHT22;52468;40.116;18.296;2023-08-12T01:51:13;22.10;71.50
51811;DHT22;52468;40.116;18.296;2023-08-12T01:53:42;22.10;71.50
51811;DHT22;52468;40.116;18.296;2023-08-12T01:56:10;22.10;71.50
51811;DHT22;52468;40.116;18.296;2023-08-12T01:58:38;22.10;71.60
51811;DHT22;52468;40.116;18.296;2023-08-12T02:01:06;22.10;71.50
51811;DHT22;52468;40.116;18.296;2023-08-12T02:03:34;22.10;71.80
51811;DHT22;52468;40.116;18.296;2023-08-12T02:06:02;22.10;71.80
51811;DHT22;52468;40.116;18.296;2023-08-12T02:08:30;22.10;71.80
51811;DHT22;52468;40.116;18.296;2023-08-12T02:10:57;22.10;71.90
51811;DHT22;52468;40.116;18.296;2023-08-12T02:13:25;22.10;71.90
51811;DHT22;52468;40.116;18.296;2023-08-12T02:15:53;22.10;72.10
51811;DHT22;52468;40.116;18.296;2023-08-12T02:18:22;22.10;72.20
51811;DHT22;52468;40.116;18.296;2023-08-12T02:20:50;22.10;72.40
51811;DHT22;52468;40.116;18.296;2023-08-12T02:23:18;22.10;72.40
51811;DHT22;52468;40.116;18.296;2023-08-12T02:25:47;22.10;72.50
51811;DHT22;52468;40.116;18.296;2023-08-12T02:28:15;22.00;72.90
51811;DHT22;52468;40.116;18.296;2023-08-12T02:30:43;22.00;73.00
51811;DHT22;52468;40.116;18.296;2023-08-12T02:33:11;22.00;73.10
51811;DHT22;52468;40.116;18.296;2023-08-12T02:35:39;22.00;73.30
51811;DHT22;52468;40.116;18.296;2023-08-12T02:38:07;22.00;73.50
51811;DHT22;52468;40.116;18.296;2023-08-12T02:40:34;22.00;73.80
51811;DHT22;52468;40.116;18.296;2023-08-12T02:43:02;22.00;73.90
51811;DHT22;52468;40.116;18.296;2023-08-12T02:45:30;22.00;74.20
51811;DHT22;52468;40.116;18.296;2023-08-12T02:47:59;22.00;74.30
51811;DHT22;52468;40.116;18.296;2023-08-12T02:50:27;21.90;74.40
51811;DHT22;52468;40.116;18.296;2023-08-12T02:52:55;21.90;74.50
51811;DHT22;52468;40.116;18.296;2023-08-12T02:55:23;21.90;74.70
51811;DHT22;52468;40.116;18.296;2023-08-12T02:57:51;21.90;74.60
51811;DHT22;52468;40.116;18.296;2023-08-12T03:00:19;21.90;74.70
51811;DHT22;52468;40.116;18.296;2023-08-12T03:02:47;21.90;74.70
51811;DHT22;52468;40.116;18.296;2023-08-12T03:05:15;21.80;74.90
51811;DHT22;52468;40.116;18.296;2023-08-12T03:07:43;21.90;75.10
51811;DHT22;52468;40.116;18.296;2023-08-12T03:10:12;21.90;75.10
51811;DHT22;52468;40.116;18.296;2023-08-12T03:12:40;21.90;75.20
51811;DHT22;52468;40.116;18.296;2023-08-12T03:15:09;22.00;75.30
51811;DHT22;52468;40.116;18.296;2023-08-12T03:17:38;22.00;75.30
51811;DHT22;52468;40.116;18.296;2023-08-12T03:20:08;21.90;75.60
51811;DHT22;52468;40.116;18.296;2023-08-12T03:22:37;21.90;75.80
51811;DHT22;52468;40.116;18.296;2023-08-12T03:25:06;21.90;75.90
51811;DHT22;52468;40.116;18.296;2023-08-12T03:27:34;22.00;75.90
51811;DHT22;52468;40.116;18.296;2023-08-12T03:30:02;21.90;76.20
51811;DHT22;52468;40.116;18.296;2023-08-12T03:32:32;21.90;76.10
51811;DHT22;52468;40.116;18.296;2023-08-12T03:35:01;21.90;76.20
51811;DHT22;52468;40.116;18.296;2023-08-12T03:37:29;21.90;76.20
51811;DHT22;52468;40.116;18.296;2023-08-12T03:39:57;21.90;76.20
51811;DHT22;52468;40.116;18.296;2023-08-12T03:42:26;21.90;76.40
51811;DHT22;52468;40.116;18.296;2023-08-12T03:44:54;22.00;76.50
51811;DHT22;52468;40.116;18.296;2023-08-12T03:47:22;22.00;76.60
51811;DHT22;52468;40.116;18.296;2023-08-12T03:49:52;21.90;76.60
51811;DHT22;52468;40.116;18.296;2023-08-12T03:52:20;21.90;76.70
51811;DHT22;52468;40.116;18.296;2023-08-12T03:54:48;21.90;76.80
51811;DHT22;52468;40.116;18.296;2023-08-12T03:57:16;21.90;77.00
51811;DHT22;52468;40.116;18.296;2023-08-12T03:59:44;21.90;77.10
51811;DHT22;52468;40.116;18.296;2023-08-12T04:02:12;21.80;77.20
51811;DHT22;52468;40.116;18.296;2023-08-12T04:04:40;21.90;77.30
51811;DHT22;52468;40.116;18.296;2023-08-12T04:07:10;22.00;77.40
51811;DHT22;52468;40.116;18.296;2023-08-12T04:09:38;22.00;77.60
51811;DHT22;52468;40.116;18.296;2023-08-12T04:12:06;22.00;77.60
51811;DHT22;52468;40.116;18.296;2023-08-12T04:14:34;22.10;77.80
51811;DHT22;52468;40.116;18.296;2023-08-12T04:17:02;22.10;77.80
51811;DHT22;52468;40.116;18.296;2023-08-12T04:19:31;22.10;77.90
51811;DHT22;52468;40.116;18.296;2023-08-12T04:21:59;22.20;77.90
51811;DHT22;52468;40.116;18.296;2023-08-12T04:24:29;22.40;77.70
51811;DHT22;52468;40.116;18.296;2023-08-12T04:26:57;22.50;77.30
51811;DHT22;52468;40.116;18.296;2023-08-12T04:29:27;22.50;77.40
51811;DHT22;52468;40.116;18.296;2023-08-12T04:31:55;22.60;77.20
51811;DHT22;52468;40.116;18.296;2023-08-12T04:34:23;22.70;77.10
51811;DHT22;52468;40.116;18.296;2023-08-12T04:36:53;22.90;76.70
51811;DHT22;52468;40.116;18.296;2023-08-12T04:39:21;23.00;76.30
51811;DHT22;52468;40.116;18.296;2023-08-12T04:41:50;23.20;75.80
51811;DHT22;52468;40.116;18.296;2023-08-12T04:44:18;23.10;75.50
51811;DHT22;52468;40.116;18.296;2023-08-12T04:46:47;23.20;75.60
51811;DHT22;52468;40.116;18.296;2023-08-12T04:49:17;23.30;75.40
51811;DHT22;52468;40.116;18.296;2023-08-12T04:51:45;23.40;75.10
51811;DHT22;52468;40.116;18.296;2023-08-12T04:54:14;23.50;74.80
51811;DHT22;52468;40.116;18.296;2023-08-12T04:56:43;23.70;74.40
51811;DHT22;52468;40.116;18.296;2023-08-12T04:59:11;23.80;73.90
51811;DHT22;52468;40.116;18.296;2023-08-12T05:01:40;24.00;73.50
51811;DHT22;52468;40.116;18.296;2023-08-12T05:04:15;24.20;72.80
51811;DHT22;52468;40.116;18.296;2023-08-12T05:06:43;24.50;72.00
51811;DHT22;52468;40.116;18.296;2023-08-12T05:09:11;24.70;71.00
51811;DHT22;52468;40.116;18.296;2023-08-12T05:11:39;25.00;70.50
51811;DHT22;52468;40.116;18.296;2023-08-12T05:14:07;25.20;69.30
51811;DHT22;52468;40.116;18.296;2023-08-12T05:16:35;25.30;68.90
51811;DHT22;52468;40.116;18.296;2023-08-12T05:19:04;25.40;68.30
51811;DHT22;52468;40.116;18.296;2023-08-12T05:21:32;25.50;67.70
51811;DHT22;52468;40.116;18.296;2023-08-12T05:23:59;25.60;67.00
51811;DHT22;52468;40.116;18.296;2023-08-12T05:26:29;25.80;67.00
51811;DHT22;52468;40.116;18.296;2023-08-12T05:28:57;26.00;65.80
51811;DHT22;52468;40.116;18.296;2023-08-12T05:31:26;26.10;65.30
51811;DHT22;52468;40.116;18.296;2023-08-12T05:33:54;26.10;64.90
51811;DHT22;52468;40.116;18.296;2023-08-12T05:36:22;26.20;65.00
51811;DHT22;52468;40.116;18.296;2023-08-12T05:38:50;26.40;64.70
51811;DHT22;52468;40.116;18.296;2023-08-12T05:41:17;26.60;63.90
51811;DHT22;52468;40.116;18.296;2023-08-12T05:43:47;26.70;63.50
51811;DHT22;52468;40.116;18.296;2023-08-12T05:46:15;26.70;63.10
51811;DHT22;52468;40.116;18.296;2023-08-12T05:48:43;26.70;63.20
51811;DHT22;52468;40.116;18.296;2023-08-12T05:51:11;26.80;63.30
51811;DHT22;52468;40.116;18.296;2023-08-12T05:53:38;26.90;62.90
51811;DHT22;52468;40.116;18.296;2023-08-12T05:56:06;27.00;62.70
51811;DHT22;52468;40.116;18.296;2023-08-12T05:58:34;27.10;62.30
51811;DHT22;52468;40.116;18.296;2023-08-12T06:01:02;27.20;62.00
51811;DHT22;52468;40.116;18.296;2023-08-12T06:03:30;27.20;61.80
51811;DHT22;52468;40.116;18.296;2023-08-12T06:05:58;27.20;61.50
51811;DHT22;52468;40.116;18.296;2023-08-12T06:08:26;27.20;61.80
51811;DHT22;52468;40.116;18.296;2023-08-12T06:10:54;27.30;61.60
51811;DHT22;52468;40.116;18.296;2023-08-12T06:13:22;27.50;61.40
51811;DHT22;52468;40.116;18.296;2023-08-12T06:15:50;27.60;61.20
51811;DHT22;52468;40.116;18.296;2023-08-12T06:18:18;27.70;61.00
51811;DHT22;52468;40.116;18.296;2023-08-12T06:20:46;27.90;60.70
51811;DHT22;52468;40.116;18.296;2023-08-12T06:23:15;28.00;59.60
51811;DHT22;52468;40.116;18.296;2023-08-12T06:25:44;28.20;59.00
51811;DHT22;52468;40.116;18.296;2023-08-12T06:28:12;28.20;58.50
51811;DHT22;52468;40.116;18.296;2023-08-12T06:30:40;28.30;58.20
51811;DHT22;52468;40.116;18.296;2023-08-12T06:33:08;28.40;57.90
51811;DHT22;52468;40.116;18.296;2023-08-12T06:35:36;28.50;57.00
51811;DHT22;52468;40.116;18.296;2023-08-12T06:38:04;28.60;56.10
51811;DHT22;52468;40.116;18.296;2023-08-12T06:40:32;28.70;55.50
51811;DHT22;52468;40.116;18.296;2023-08-12T06:42:59;28.80;55.10
51811;DHT22;52468;40.116;18.296;2023-08-12T06:45:28;28.90;54.50
51811;DHT22;52468;40.116;18.296;2023-08-12T06:47:56;29.00;54.20
51811;DHT22;52468;40.116;18.296;2023-08-12T06:50:24;29.00;54.00
51811;DHT22;52468;40.116;18.296;2023-08-12T06:52:52;29.10;53.80
51811;DHT22;52468;40.116;18.296;2023-08-12T06:55:20;29.30;53.00
51811;DHT22;52468;40.116;18.296;2023-08-12T06:57:47;29.40;52.90
51811;DHT22;52468;40.116;18.296;2023-08-12T07:00:15;29.50;53.20
51811;DHT22;52468;40.116;18.296;2023-08-12T07:02:43;29.50;52.70
51811;DHT22;52468;40.116;18.296;2023-08-12T07:05:11;29.50;51.80
51811;DHT22;52468;40.116;18.296;2023-08-12T07:07:39;29.50;51.20
51811;DHT22;52468;40.116;18.296;2023-08-12T07:10:08;29.20;52.00
51811;DHT22;52468;40.116;18.296;2023-08-12T07:12:36;29.20;52.40
51811;DHT22;52468;40.116;18.296;2023-08-12T07:15:04;29.30;51.70
51811;DHT22;52468;40.116;18.296;2023-08-12T07:17:32;29.50;51.70
51811;DHT22;52468;40.116;18.296;2023-08-12T07:20:00;29.60;51.60
51811;DHT22;52468;40.116;18.296;2023-08-12T07:22:28;29.80;51.40
51811;DHT22;52468;40.116;18.296;2023-08-12T07:24:56;29.80;49.80
51811;DHT22;52468;40.116;18.296;2023-08-12T07:27:27;29.90;49.30
51811;DHT22;52468;40.116;18.296;2023-08-12T07:29:55;30.00;49.80
51811;DHT22;52468;40.116;18.296;2023-08-12T07:32:23;30.00;49.10
51811;DHT22;52468;40.116;18.296;2023-08-12T07:34:51;30.00;49.20
51811;DHT22;52468;40.116;18.296;2023-08-12T07:37:19;30.10;49.00
51811;DHT22;52468;40.116;18.296;2023-08-12T07:39:47;30.20;48.10
51811;DHT22;52468;40.116;18.296;2023-08-12T07:42:15;30.30;48.20
51811;DHT22;52468;40.116;18.296;2023-08-12T07:44:43;30.30;48.60
51811;DHT22;52468;40.116;18.296;2023-08-12T07:47:11;30.40;48.70
51811;DHT22;52468;40.116;18.296;2023-08-12T07:49:39;30.50;48.00
51811;DHT22;52468;40.116;18.296;2023-08-12T07:52:07;30.60;46.70
51811;DHT22;52468;40.116;18.296;2023-08-12T07:54:35;30.80;45.90
51811;DHT22;52468;40.116;18.296;2023-08-12T07:57:03;30.80;45.00
51811;DHT22;52468;40.116;18.296;2023-08-12T07:59:31;30.90;43.80
51811;DHT22;52468;40.116;18.296;2023-08-12T08:01:59;31.00;43.20
51811;DHT22;52468;40.116;18.296;2023-08-12T08:04:27;31.00;42.50
51811;DHT22;52468;40.116;18.296;2023-08-12T08:06:55;31.00;42.10
51811;DHT22;52468;40.116;18.296;2023-08-12T08:09:22;31.00;41.70
51811;DHT22;52468;40.116;18.296;2023-08-12T08:11:50;31.20;42.00
51811;DHT22;52468;40.116;18.296;2023-08-12T08:14:19;31.30;41.20
51811;DHT22;52468;40.116;18.296;2023-08-12T08:16:47;31.30;39.40
51811;DHT22;52468;40.116;18.296;2023-08-12T08:19:15;31.50;38.20
51811;DHT22;52468;40.116;18.296;2023-08-12T08:21:43;31.50;38.80
51811;DHT22;52468;40.116;18.296;2023-08-12T08:24:11;31.50;38.10
51811;DHT22;52468;40.116;18.296;2023-08-12T08:26:40;31.50;38.50
51811;DHT22;52468;40.116;18.296;2023-08-12T08:29:08;31.50;38.60
51811;DHT22;52468;40.116;18.296;2023-08-12T08:31:36;31.50;38.30
51811;DHT22;52468;40.116;18.296;2023-08-12T08:34:04;31.60;38.60
51811;DHT22;52468;40.116;18.296;2023-08-12T08:36:32;31.80;38.30
51811;DHT22;52468;40.116;18.296;2023-08-12T08:39:00;31.80;38.50
51811;DHT22;52468;40.116;18.296;2023-08-12T08:41:30;31.80;38.10
51811;DHT22;52468;40.116;18.296;2023-08-12T08:44:02;32.00;37.40
51811;DHT22;52468;40.116;18.296;2023-08-12T08:46:33;32.00;36.50
51811;DHT22;52468;40.116;18.296;2023-08-12T08:49:02;32.20;35.70
51811;DHT22;52468;40.116;18.296;2023-08-12T08:51:31;32.10;34.50
51811;DHT22;52468;40.116;18.296;2023-08-12T08:53:59;32.10;34.90
51811;DHT22;52468;40.116;18.296;2023-08-12T08:56:34;32.40;34.80
51811;DHT22;52468;40.116;18.296;2023-08-12T08:59:03;32.50;34.70
51811;DHT22;52468;40.116;18.296;2023-08-12T09:01:31;32.60;34.60
51811;DHT22;52468;40.116;18.296;2023-08-12T09:03:59;32.60;35.10
51811;DHT22;52468;40.116;18.296;2023-08-12T09:06:29;32.60;35.10
51811;DHT22;52468;40.116;18.296;2023-08-12T09:08:58;32.70;35.10
51811;DHT22;52468;40.116;18.296;2023-08-12T09:11:28;32.90;34.10
51811;DHT22;52468;40.116;18.296;2023-08-12T09:13:56;32.90;34.30
51811;DHT22;52468;40.116;18.296;2023-08-12T09:16:24;32.80;34.60
51811;DHT22;52468;40.116;18.296;2023-08-12T09:18:56;32.80;34.30
51811;DHT22;52468;40.116;18.296;2023-08-12T09:21:24;32.70;34.50
51811;DHT22;52468;40.116;18.296;2023-08-12T09:23:52;32.80;35.20
51811;DHT22;52468;40.116;18.296;2023-08-12T09:26:20;32.80;35.30
51811;DHT22;52468;40.116;18.296;2023-08-12T09:28:48;32.80;35.20
51811;DHT22;52468;40.116;18.296;2023-08-12T09:31:24;32.90;35.20
51811;DHT22;52468;40.116;18.296;2023-08-12T09:33:53;32.90;34.80
51811;DHT22;52468;40.116;18.296;2023-08-12T09:36:21;32.70;34.10
51811;DHT22;52468;40.116;18.296;2023-08-12T09:38:50;32.70;34.80
51811;DHT22;52468;40.116;18.296;2023-08-12T09:41:18;32.80;34.10
51811;DHT22;52468;40.116;18.296;2023-08-12T09:43:46;33.00;33.80
51811;DHT22;52468;40.116;18.296;2023-08-12T09:46:14;32.90;32.20
51811;DHT22;52468;40.116;18.296;2023-08-12T09:48:43;32.50;31.90
51811;DHT22;52468;40.116;18.296;2023-08-12T09:51:11;32.60;32.70
51811;DHT22;52468;40.116;18.296;2023-08-12T09:53:40;32.80;33.50
51811;DHT22;52468;40.116;18.296;2023-08-12T09:56:11;32.70;34.10
51811;DHT22;52468;40.116;18.296;2023-08-12T09:58:41;33.00;33.00
51811;DHT22;52468;40.116;18.296;2023-08-12T10:01:11;33.00;32.40
51811;DHT22;52468;40.116;18.296;2023-08-12T10:03:41;33.20;32.70
51811;DHT22;52468;40.116;18.296;2023-08-12T10:06:11;33.20;32.50
51811;DHT22;52468;40.116;18.296;2023-08-12T10:08:41;33.20;32.40
51811;DHT22;52468;40.116;18.296;2023-08-12T10:11:10;33.20;32.30
51811;DHT22;52468;40.116;18.296;2023-08-12T10:13:40;33.10;32.30
51811;DHT22;52468;40.116;18.296;2023-08-12T10:16:09;33.20;31.60
51811;DHT22;52468;40.116;18.296;2023-08-12T10:18:40;33.20;31.00
51811;DHT22;52468;40.116;18.296;2023-08-12T10:21:09;33.50;30.80
51811;DHT22;52468;40.116;18.296;2023-08-12T10:23:41;33.70;30.80
51811;DHT22;52468;40.116;18.296;2023-08-12T10:26:11;33.90;30.30
51811;DHT22;52468;40.116;18.296;2023-08-12T10:28:40;33.80;30.40
51811;DHT22;52468;40.116;18.296;2023-08-12T10:31:08;33.50;29.80
51811;DHT22;52468;40.116;18.296;2023-08-12T10:33:39;33.50;29.70
51811;DHT22;52468;40.116;18.296;2023-08-12T10:36:07;33.40;30.00
51811;DHT22;52468;40.116;18.296;2023-08-12T10:38:36;33.60;29.70
51811;DHT22;52468;40.116;18.296;2023-08-12T10:41:23;33.50;29.60
51811;DHT22;52468;40.116;18.296;2023-08-12T10:44:01;33.60;29.30
51811;DHT22;52468;40.116;18.296;2023-08-12T10:46:36;33.60;29.70
51811;DHT22;52468;40.116;18.296;2023-08-12T10:49:08;33.50;30.00
51811;DHT22;52468;40.116;18.296;2023-08-12T10:54:22;33.80;29.90
51811;DHT22;52468;40.116;18.296;2023-08-12T11:02:30;33.90;30.10
51811;DHT22;52468;40.116;18.296;2023-08-12T11:07:41;33.80;30.70
51811;DHT22;52468;40.116;18.296;2023-08-12T11:10:23;33.80;31.10
51811;DHT22;52468;40.116;18.296;2023-08-12T11:15:44;33.70;31.30
51811;DHT22;52468;40.116;18.296;2023-08-12T11:18:15;33.90;31.60
51811;DHT22;52468;40.116;18.296;2023-08-12T11:20:48;33.70;31.80
51811;DHT22;52468;40.116;18.296;2023-08-12T11:23:17;33.80;31.60
51811;DHT22;52468;40.116;18.296;2023-08-12T11:25:44;33.80;31.20
51811;DHT22;52468;40.116;18.296;2023-08-12T11:28:13;33.60;31.80
51811;DHT22;52468;40.116;18.296;2023-08-12T11:30:41;33.60;31.90
51811;DHT22;52468;40.116;18.296;2023-08-12T11:33:12;33.90;31.60
51811;DHT22;52468;40.116;18.296;2023-08-12T11:35:40;34.10;31.50
51811;DHT22;52468;40.116;18.296;2023-08-12T11:38:09;34.00;32.30
51811;DHT22;52468;40.116;18.296;2023-08-12T11:40:37;34.00;31.90
51811;DHT22;52468;40.116;18.296;2023-08-12T11:43:05;34.00;31.60
51811;DHT22;52468;40.116;18.296;2023-08-12T11:45:33;34.00;31.60
51811;DHT22;52468;40.116;18.296;2023-08-12T11:48:01;34.00;31.20
51811;DHT22;52468;40.116;18.296;2023-08-12T11:50:30;34.00;31.50
51811;DHT22;52468;40.116;18.296;2023-08-12T11:52:58;34.10;31.60
51811;DHT22;52468;40.116;18.296;2023-08-12T11:55:26;34.10;31.20
51811;DHT22;52468;40.116;18.296;2023-08-12T11:57:54;34.10;31.50
51811;DHT22;52468;40.116;18.296;2023-08-12T12:00:25;34.20;31.70
51811;DHT22;52468;40.116;18.296;2023-08-12T12:02:54;34.30;31.60
51811;DHT22;52468;40.116;18.296;2023-08-12T12:05:27;34.50;31.40
51811;DHT22;52468;40.116;18.296;2023-08-12T12:07:55;34.60;31.00
51811;DHT22;52468;40.116;18.296;2023-08-12T12:10:27;34.40;31.30
51811;DHT22;52468;40.116;18.296;2023-08-12T12:12:58;34.20;31.80
51811;DHT22;52468;40.116;18.296;2023-08-12T12:15:26;34.10;32.50
51811;DHT22;52468;40.116;18.296;2023-08-12T12:17:54;34.10;32.80
51811;DHT22;52468;40.116;18.296;2023-08-12T12:20:22;34.30;32.80
51811;DHT22;52468;40.116;18.296;2023-08-12T12:22:50;34.30;32.30
51811;DHT22;52468;40.116;18.296;2023-08-12T12:25:18;34.30;32.40
51811;DHT22;52468;40.116;18.296;2023-08-12T12:27:49;34.40;32.80
51811;DHT22;52468;40.116;18.296;2023-08-12T12:30:17;34.10;33.10
51811;DHT22;52468;40.116;18.296;2023-08-12T12:32:46;34.30;32.90
51811;DHT22;52468;40.116;18.296;2023-08-12T12:35:14;34.40;32.50
51811;DHT22;52468;40.116;18.296;2023-08-12T12:37:43;34.20;32.30
51811;DHT22;52468;40.116;18.296;2023-08-12T12:40:11;34.00;32.50
51811;DHT22;52468;40.116;18.296;2023-08-12T12:42:39;34.00;32.40
51811;DHT22;52468;40.116;18.296;2023-08-12T12:45:08;34.00;32.30
51811;DHT22;52468;40.116;18.296;2023-08-12T12:47:36;34.20;32.10
51811;DHT22;52468;40.116;18.296;2023-08-12T12:50:05;34.20;32.10
51811;DHT22;52468;40.116;18.296;2023-08-12T12:52:33;34.20;32.30
51811;DHT22;52468;40.116;18.296;2023-08-12T12:55:01;34.10;32.60
51811;DHT22;52468;40.116;18.296;2023-08-12T12:57:31;34.30;32.40
51811;DHT22;52468;40.116;18.296;2023-08-12T12:59:59;34.30;32.30
51811;DHT22;52468;40.116;18.296;2023-08-12T13:02:28;34.20;31.90
51811;DHT22;52468;40.116;18.296;2023-08-12T13:04:56;34.50;31.60
51811;DHT22;52468;40.116;18.296;2023-08-12T13:07:23;34.40;31.80
51811;DHT22;52468;40.116;18.296;2023-08-12T13:09:51;34.40;31.60
51811;DHT22;52468;40.116;18.296;2023-08-12T13:12:19;34.40;31.30
51811;DHT22;52468;40.116;18.296;2023-08-12T13:14:47;34.60;31.40
51811;DHT22;52468;40.116;18.296;2023-08-12T13:17:15;34.70;30.70
51811;DHT22;52468;40.116;18.296;2023-08-12T13:19:43;34.80;31.60
51811;DHT22;52468;40.116;18.296;2023-08-12T13:22:11;35.20;30.50
51811;DHT22;52468;40.116;18.296;2023-08-12T13:24:39;35.50;30.20
51811;DHT22;52468;40.116;18.296;2023-08-12T13:27:07;35.70;29.80
51811;DHT22;52468;40.116;18.296;2023-08-12T13:29:35;36.10;29.20
51811;DHT22;52468;40.116;18.296;2023-08-12T13:32:03;36.50;28.50
51811;DHT22;52468;40.116;18.296;2023-08-12T13:34:31;37.00;27.70
51811;DHT22;52468;40.116;18.296;2023-08-12T13:36:59;38.50;26.00
51811;DHT22;52468;40.116;18.296;2023-08-12T13:39:27;39.40;24.80
51811;DHT22;52468;40.116;18.296;2023-08-12T13:41:54;40.80;23.70
51811;DHT22;52468;40.116;18.296;2023-08-12T13:44:24;41.40;22.80
51811;DHT22;52468;40.116;18.296;2023-08-12T13:46:52;41.80;22.40
51811;DHT22;52468;40.116;18.296;2023-08-12T13:49:20;42.00;21.80
51811;DHT22;52468;40.116;18.296;2023-08-12T13:51:48;41.60;22.30
51811;DHT22;52468;40.116;18.296;2023-08-12T13:54:16;41.10;22.60
51811;DHT22;52468;40.116;18.296;2023-08-12T13:56:43;41.10;22.90
51811;DHT22;52468;40.116;18.296;2023-08-12T13:59:11;40.50;23.40
51811;DHT22;52468;40.116;18.296;2023-08-12T14:01:39;40.50;23.30
51811;DHT22;52468;40.116;18.296;2023-08-12T14:04:08;41.30;22.30
51811;DHT22;52468;40.116;18.296;2023-08-12T14:06:36;41.20;22.40
51811;DHT22;52468;40.116;18.296;2023-08-12T14:09:04;41.20;22.20
51811;DHT22;52468;40.116;18.296;2023-08-12T14:11:32;41.20;22.30
51811;DHT22;52468;40.116;18.296;2023-08-12T14:14:00;41.70;21.60
51811;DHT22;52468;40.116;18.296;2023-08-12T14:16:28;41.50;21.80
51811;DHT22;52468;40.116;18.296;2023-08-12T14:18:56;41.10;22.30
51811;DHT22;52468;40.116;18.296;2023-08-12T14:21:24;40.90;22.80
51811;DHT22;52468;40.116;18.296;2023-08-12T14:23:52;40.90;22.80
51811;DHT22;52468;40.116;18.296;2023-08-12T14:26:20;40.90;22.90
51811;DHT22;52468;40.116;18.296;2023-08-12T14:28:48;41.10;22.30
51811;DHT22;52468;40.116;18.296;2023-08-12T14:31:16;40.80;22.70
51811;DHT22;52468;40.116;18.296;2023-08-12T14:33:43;41.30;22.00
51811;DHT22;52468;40.116;18.296;2023-08-12T14:36:11;41.00;22.30
51811;DHT22;52468;40.116;18.296;2023-08-12T14:38:39;41.50;21.70
51811;DHT22;52468;40.116;18.296;2023-08-12T14:41:07;41.30;22.00
51811;DHT22;52468;40.116;18.296;2023-08-12T14:43:35;41.40;21.80
51811;DHT22;52468;40.116;18.296;2023-08-12T14:46:04;41.50;21.70
51811;DHT22;52468;40.116;18.296;2023-08-12T14:48:32;41.30;21.70
51811;DHT22;52468;40.116;18.296;2023-08-12T14:51:00;41.40;21.80
51811;DHT22;52468;40.116;18.296;2023-08-12T14:53:28;41.20;22.20
51811;DHT22;52468;40.116;18.296;2023-08-12T14:55:56;41.30;22.00
51811;DHT22;52468;40.116;18.296;2023-08-12T14:58:24;41.20;22.20
51811;DHT22;52468;40.116;18.296;2023-08-12T15:00:52;41.20;22.40
51811;DHT22;52468;40.116;18.296;2023-08-12T15:03:20;40.40;23.00
51811;DHT22;52468;40.116;18.296;2023-08-12T15:05:48;40.40;22.90
51811;DHT22;52468;40.116;18.296;2023-08-12T15:08:16;40.40;23.10
51811;DHT22;52468;40.116;18.296;2023-08-12T15:10:44;40.30;22.70
51811;DHT22;52468;40.116;18.296;2023-08-12T15:13:12;40.10;23.10
51811;DHT22;52468;40.116;18.296;2023-08-12T15:15:39;39.80;23.40
51811;DHT22;52468;40.116;18.296;2023-08-12T15:18:07;39.60;23.80
51811;DHT22;52468;40.116;18.296;2023-08-12T15:20:35;39.40;23.80
51811;DHT22;52468;40.116;18.296;2023-08-12T15:23:03;39.50;24.00
51811;DHT22;52468;40.116;18.296;2023-08-12T15:25:31;39.60;23.80
51811;DHT22;52468;40.116;18.296;2023-08-12T15:27:59;39.90;23.20
51811;DHT22;52468;40.116;18.296;2023-08-12T15:30:28;39.50;23.50
51811;DHT22;52468;40.116;18.296;2023-08-12T15:32:56;39.50;23.70
51811;DHT22;52468;40.116;18.296;2023-08-12T15:35:26;39.60;23.80
51811;DHT22;52468;40.116;18.296;2023-08-12T15:37:54;39.90;23.70